Time;durP1;ratioP1;P1;durP2;ratioP2;P2;SDS_P1;SDS_P2;PMS_P1;PMS_P2;Temp;Humidity;BMP_temperature;BMP_pressure;BME280_temperature;BME280_humidity;BME280_pressure;Samples;Min_cycle;Max_cycle;Signal;HPM_P1;HPM_P2
2022/05/20 00:01:49;;;;;;;4.25;3.10;;;20.10;61.00;;;;;;4971117;28;20154;-75
2022/05/20 00:04:15;;;;;;;4.25;2.95;;;20.00;60.90;;;;;;4969930;28;20038;-75
2022/05/20 00:06:40;;;;;;;3.90;3.03;;;20.00;61.00;;;;;;4962317;28;20034;-74
2022/05/20 00:09:06;;;;;;;4.70;3.15;;;20.00;61.00;;;;;;4972088;28;20521;-74
2022/05/20 00:11:33;;;;;;;4.60;3.38;;;19.90;61.00;;;;;;4970660;28;20070;-75
2022/05/20 00:13:59;;;;;;;4.63;3.30;;;19.90;61.00;;;;;;4971351;28;20082;-75
2022/05/20 00:16:25;;;;;;;3.92;3.08;;;19.90;61.10;;;;;;4969177;28;20558;-76
2022/05/20 00:18:50;;;;;;;5.50;3.10;;;19.80;61.10;;;;;;4977144;28;20062;-75
2022/05/20 00:21:16;;;;;;;4.88;2.95;;;19.80;61.10;;;;;;4969757;28;20038;-76
2022/05/20 00:23:42;;;;;;;4.25;3.13;;;19.80;61.20;;;;;;4969506;28;20371;-74
2022/05/20 00:26:07;;;;;;;4.10;3.15;;;19.70;61.20;;;;;;4969958;28;20481;-74
2022/05/20 00:28:33;;;;;;;4.40;3.13;;;19.70;61.20;;;;;;4970263;28;20030;-75
2022/05/20 00:31:10;;;;;;;4.03;3.20;;;19.70;61.20;;;;;;4952363;28;20065;-75
2022/05/20 00:33:37;;;;;;;4.18;3.10;;;19.60;61.30;;;;;;4944600;28;20220;-75
2022/05/20 00:36:04;;;;;;;4.15;3.08;;;19.60;61.20;;;;;;4969015;28;20070;-76
2022/05/20 00:38:30;;;;;;;4.50;3.33;;;19.60;61.30;;;;;;4970024;28;20042;-75
2022/05/20 00:41:00;;;;;;;4.15;3.15;;;19.50;61.20;;;;;;4970714;28;20491;-75
2022/05/20 00:43:28;;;;;;;3.83;2.85;;;19.50;61.30;;;;;;4953436;28;20054;-75
2022/05/20 00:45:58;;;;;;;3.72;3.08;;;19.50;61.30;;;;;;4953029;28;20034;-74
2022/05/20 00:48:24;;;;;;;4.03;3.05;;;19.40;61.30;;;;;;5001482;28;20109;-75
2022/05/20 00:50:57;;;;;;;4.85;3.42;;;19.40;61.30;;;;;;4969637;28;20042;-74
2022/05/20 00:53:26;;;;;;;4.97;3.13;;;19.40;61.40;;;;;;4970635;28;20085;-75
2022/05/20 00:55:52;;;;;;;4.57;3.10;;;19.30;61.40;;;;;;4957491;28;20530;-75
2022/05/20 00:58:20;;;;;;;5.57;3.72;;;19.30;61.40;;;;;;4969631;28;20035;-75
2022/05/20 01:00:52;;;;;;;5.53;3.47;;;19.30;61.50;;;;;;4970527;28;20113;-74
2022/05/20 01:03:22;;;;;;;4.65;3.25;;;19.20;61.50;;;;;;4970164;28;20086;-75
2022/05/20 01:05:50;;;;;;;4.53;3.33;;;19.20;61.50;;;;;;4970438;28;20045;-75
2022/05/20 01:08:20;;;;;;;4.20;3.10;;;19.20;61.50;;;;;;4968842;28;20077;-75
2022/05/20 01:10:45;;;;;;;3.67;2.97;;;19.20;61.60;;;;;;4967750;28;20718;-75
2022/05/20 01:13:14;;;;;;;4.95;3.42;;;19.10;61.50;;;;;;4970683;28;20027;-75
2022/05/20 01:15:40;;;;;;;4.43;3.38;;;19.20;61.70;;;;;;4970594;28;20015;-76
2022/05/20 01:18:07;;;;;;;5.30;3.50;;;19.10;61.60;;;;;;4969198;28;20114;-75
2022/05/20 01:20:38;;;;;;;4.20;3.25;;;19.00;61.60;;;;;;4969011;28;20035;-75
2022/05/20 01:23:07;;;;;;;4.15;3.17;;;19.00;61.70;;;;;;4969532;28;20034;-74
2022/05/20 01:25:34;;;;;;;4.30;3.33;;;18.90;61.70;;;;;;4971304;28;20123;-75
2022/05/20 01:28:00;;;;;;;4.38;3.30;;;18.90;61.70;;;;;;4972391;28;20387;-76
2022/05/20 01:30:28;;;;;;;5.00;3.40;;;18.90;61.70;;;;;;4972519;28;20038;-75
2022/05/20 01:32:54;;;;;;;4.88;3.33;;;18.90;61.70;;;;;;4958735;28;20034;-74
2022/05/20 01:35:27;;;;;;;4.15;3.47;;;18.90;61.70;;;;;;4974018;28;20023;-75
2022/05/20 01:37:53;;;;;;;4.78;3.53;;;18.80;61.80;;;;;;4973982;28;20058;-75
2022/05/20 01:40:19;;;;;;;4.70;3.60;;;18.80;61.80;;;;;;4972427;28;20058;-74
2022/05/20 01:43:01;;;;;;;3.85;3.10;;;18.80;61.80;;;;;;4988848;28;20031;-75
2022/05/20 01:45:37;;;;;;;4.15;3.03;;;18.70;61.80;;;;;;4949709;28;20027;-75
2022/05/20 01:48:17;;;;;;;3.92;3.30;;;18.70;61.90;;;;;;4972833;28;20494;-75
2022/05/20 01:50:51;;;;;;;4.45;3.38;;;18.70;61.90;;;;;;4968135;28;20102;-75
2022/05/20 01:53:39;;;;;;;6.78;3.55;;;18.70;61.90;;;;;;4971407;28;20046;-75
2022/05/20 01:56:21;;;;;;;4.20;3.35;;;18.60;62.00;;;;;;4973837;28;20085;-74
2022/05/20 01:58:53;;;;;;;4.47;3.22;;;18.60;62.00;;;;;;4972712;28;20022;-75
2022/05/20 02:01:33;;;;;;;4.50;3.45;;;18.60;62.00;;;;;;4971651;28;20105;-75
2022/05/20 02:04:10;;;;;;;4.47;3.47;;;18.50;62.00;;;;;;4973174;28;20030;-76
2022/05/20 02:06:41;;;;;;;3.85;2.95;;;18.50;62.10;;;;;;4971991;28;20030;-74
2022/05/20 02:09:14;;;;;;;4.72;3.28;;;18.50;62.00;;;;;;4972372;28;20026;-74
2022/05/20 02:11:54;;;;;;;4.78;3.25;;;18.40;62.10;;;;;;4979419;28;20097;-74
2022/05/20 02:14:29;;;;;;;4.50;3.20;;;18.40;62.10;;;;;;4955478;28;20027;-75
2022/05/20 02:17:11;;;;;;;4.13;3.40;;;18.40;62.20;;;;;;4972123;28;20031;-74
2022/05/20 02:19:52;;;;;;;5.00;3.13;;;18.40;62.30;;;;;;4969720;28;20078;-75
2022/05/20 02:22:21;;;;;;;4.18;3.25;;;18.30;62.20;;;;;;4971438;28;20042;-74
2022/05/20 02:24:47;;;;;;;4.25;3.35;;;18.30;62.20;;;;;;4971369;28;20054;-75
2022/05/20 02:27:19;;;;;;;4.20;3.38;;;18.30;62.20;;;;;;4952385;28;20024;-75
2022/05/20 02:29:54;;;;;;;4.20;3.15;;;18.20;62.30;;;;;;4955290;28;20504;-74
2022/05/20 02:32:30;;;;;;;4.40;3.20;;;18.20;62.30;;;;;;4972609;28;20019;-75
2022/05/20 02:34:56;;;;;;;4.70;3.53;;;18.20;62.30;;;;;;4955232;28;20352;-74
2022/05/20 02:37:35;;;;;;;4.95;3.58;;;18.20;62.30;;;;;;4970405;28;20064;-75
2022/05/20 02:40:01;;;;;;;5.00;3.45;;;18.20;62.50;;;;;;4985639;28;20133;-74
2022/05/20 02:42:28;;;;;;;5.07;3.72;;;18.10;62.30;;;;;;4955684;28;20045;-74
2022/05/20 02:44:59;;;;;;;4.25;3.08;;;18.10;62.30;;;;;;4955866;28;20523;-74
2022/05/20 02:47:31;;;;;;;4.50;3.42;;;18.10;62.40;;;;;;4968461;28;20031;-75
2022/05/20 02:50:01;;;;;;;4.18;3.40;;;18.10;62.40;;;;;;4952448;28;20031;-75
2022/05/20 02:52:27;;;;;;;4.85;3.65;;;18.00;62.40;;;;;;4969354;28;20031;-74
2022/05/20 02:54:53;;;;;;;4.85;3.50;;;18.00;62.40;;;;;;4971608;28;20042;-74
2022/05/20 02:57:19;;;;;;;4.45;3.58;;;18.00;62.40;;;;;;4972634;28;20041;-74
2022/05/20 03:05:15;;;;;;;4.63;3.17;;;17.90;62.40;;;;;;4968776;28;20035;-75
2022/05/20 03:07:41;;;;;;;4.47;3.42;;;17.90;62.40;;;;;;4972591;28;20033;-74
2022/05/20 03:10:07;;;;;;;5.63;3.35;;;17.90;62.50;;;;;;4972441;28;20046;-74
2022/05/20 03:12:35;;;;;;;4.63;3.35;;;17.80;62.50;;;;;;4970203;28;20046;-77
2022/05/20 03:15:03;;;;;;;4.30;3.28;;;17.80;62.60;;;;;;4963768;28;20034;-75
2022/05/20 03:17:30;;;;;;;4.57;3.42;;;17.80;62.60;;;;;;4970883;28;20046;-76
2022/05/20 03:19:56;;;;;;;5.68;3.22;;;17.70;62.60;;;;;;4955490;28;20023;-75
2022/05/20 03:22:21;;;;;;;4.40;3.50;;;17.70;62.60;;;;;;4971245;28;20050;-74
2022/05/20 03:24:47;;;;;;;4.65;3.65;;;17.70;62.60;;;;;;4970474;28;20535;-77
2022/05/20 03:27:13;;;;;;;4.30;3.22;;;17.70;62.70;;;;;;4970591;28;20123;-75
2022/05/20 03:29:39;;;;;;;5.07;3.80;;;17.70;62.70;;;;;;4971872;28;20030;-74
2022/05/20 03:32:05;;;;;;;5.32;3.38;;;17.70;62.70;;;;;;4971868;28;20057;-74
2022/05/20 03:34:31;;;;;;;4.65;3.67;;;17.60;62.70;;;;;;4967332;28;20034;-74
2022/05/20 03:36:57;;;;;;;4.75;3.55;;;17.60;62.70;;;;;;4976490;28;20030;-74
2022/05/20 03:39:25;;;;;;;5.10;3.47;;;17.60;62.70;;;;;;4971117;28;20081;-74
2022/05/20 03:41:52;;;;;;;4.50;3.55;;;17.60;62.80;;;;;;4969945;28;20030;-76
2022/05/20 03:44:18;;;;;;;5.00;4.05;;;17.50;62.70;;;;;;4963949;28;20038;-74
2022/05/20 03:46:52;;;;;;;4.95;4.03;;;17.50;62.70;;;;;;4971056;28;20019;-76
2022/05/20 03:49:19;;;;;;;4.90;3.77;;;17.50;62.80;;;;;;4970365;28;20027;-74
2022/05/20 03:51:47;;;;;;;4.53;3.50;;;17.50;62.70;;;;;;4971485;28;20033;-75
2022/05/20 03:54:18;;;;;;;4.72;3.63;;;17.50;62.80;;;;;;4970468;28;20166;-75
2022/05/20 03:56:43;;;;;;;4.68;3.65;;;17.50;62.80;;;;;;4952181;28;20090;-74
2022/05/20 03:59:10;;;;;;;4.70;4.05;;;17.40;62.80;;;;;;4971597;28;20447;-74
2022/05/20 04:04:22;;;;;;;5.70;3.72;;;17.40;62.80;;;;;;4970535;28;20455;-74
2022/05/20 04:06:48;;;;;;;5.22;4.00;;;17.30;62.80;;;;;;4969373;28;20034;-75
2022/05/20 04:09:14;;;;;;;5.18;3.95;;;17.30;62.90;;;;;;4970200;28;20042;-75
2022/05/20 04:11:39;;;;;;;5.28;4.15;;;17.30;62.90;;;;;;4969552;28;20403;-75
2022/05/20 04:14:05;;;;;;;5.18;4.07;;;17.20;62.90;;;;;;4973499;28;20039;-74
2022/05/20 04:16:31;;;;;;;5.28;4.10;;;17.30;62.90;;;;;;4970389;28;20031;-74
2022/05/20 04:18:57;;;;;;;6.05;4.25;;;17.20;62.90;;;;;;4951412;28;20035;-75
2022/05/20 04:21:23;;;;;;;5.03;4.18;;;17.20;62.90;;;;;;4971038;28;20106;-75
2022/05/20 04:23:49;;;;;;;6.57;4.35;;;17.20;63.00;;;;;;4970699;28;20029;-75
2022/05/20 04:26:14;;;;;;;4.93;3.80;;;17.20;63.00;;;;;;4969633;28;20027;-75
2022/05/20 04:28:40;;;;;;;4.68;3.60;;;17.20;63.00;;;;;;4953367;28;20414;-76
2022/05/20 04:31:08;;;;;;;5.80;4.68;;;17.10;63.40;;;;;;4970163;28;20483;-75
2022/05/20 04:33:34;;;;;;;6.10;4.28;;;17.10;63.10;;;;;;4971119;28;20027;-74
2022/05/20 04:36:00;;;;;;;5.10;4.07;;;17.10;63.10;;;;;;4969036;28;20105;-74
2022/05/20 04:38:26;;;;;;;5.35;4.45;;;17.10;63.10;;;;;;4969789;28;20114;-74
2022/05/20 04:49:08;;;;;;;;;;;17.00;63.20;;;;;;4971206;28;20031;-75
2022/05/20 04:51:34;;;;;;;4.55;3.30;;;17.00;63.10;;;;;;4978316;28;19953;-74
2022/05/20 04:56:45;;;;;;;4.85;4.03;;;17.00;63.30;;;;;;4969775;28;20034;-74
2022/05/20 04:59:12;;;;;;;5.30;4.47;;;16.90;63.30;;;;;;4970369;28;20038;-75
2022/05/20 05:01:39;;;;;;;5.80;4.35;;;16.90;63.40;;;;;;4972360;28;20035;-74
2022/05/20 05:04:06;;;;;;;6.53;4.43;;;16.90;63.40;;;;;;4941826;28;20116;-75
2022/05/20 05:06:32;;;;;;;5.30;4.40;;;17.00;63.50;;;;;;4973496;28;20030;-74
2022/05/20 05:08:58;;;;;;;5.20;4.40;;;16.90;63.50;;;;;;4947588;28;20042;-75
2022/05/20 05:11:23;;;;;;;6.40;4.95;;;16.90;63.50;;;;;;4972992;28;20364;-74
2022/05/20 05:13:49;;;;;;;4.75;4.15;;;16.90;63.50;;;;;;4973681;28;20032;-74
2022/05/20 05:16:15;;;;;;;6.05;4.53;;;16.90;63.60;;;;;;4956572;28;20034;-74
2022/05/20 05:18:40;;;;;;;5.53;4.75;;;16.90;63.60;;;;;;4973341;28;20038;-75
2022/05/20 05:21:06;;;;;;;5.45;4.40;;;16.90;63.60;;;;;;4974085;28;20038;-75
2022/05/20 05:23:32;;;;;;;5.13;4.10;;;16.90;63.70;;;;;;4956649;28;20121;-75
2022/05/20 05:25:58;;;;;;;5.18;4.50;;;16.90;63.70;;;;;;4973022;28;20038;-74
2022/05/20 05:28:24;;;;;;;5.70;4.90;;;16.90;63.70;;;;;;4956677;28;20098;-74
2022/05/20 05:30:52;;;;;;;5.90;4.85;;;16.90;63.70;;;;;;4973025;28;20058;-75
2022/05/20 05:33:19;;;;;;;5.25;4.30;;;17.00;63.80;;;;;;4973400;28;20085;-75
2022/05/20 05:35:45;;;;;;;5.15;4.03;;;16.90;63.80;;;;;;4956222;28;20031;-75
2022/05/20 05:38:11;;;;;;;5.35;4.65;;;16.90;63.80;;;;;;4972665;28;20027;-74
2022/05/20 05:40:39;;;;;;;5.30;4.40;;;16.90;63.90;;;;;;4972286;28;20117;-74
2022/05/20 05:43:05;;;;;;;6.10;4.60;;;16.90;64.50;;;;;;4973888;28;20035;-75
2022/05/20 05:45:33;;;;;;;5.70;4.65;;;16.90;63.90;;;;;;4956852;28;20031;-75
2022/05/20 05:48:09;;;;;;;5.70;4.63;;;16.90;63.90;;;;;;4949779;29;20019;-74
2022/05/20 05:50:39;;;;;;;5.45;4.45;;;16.90;63.90;;;;;;4953246;28;20460;-74
2022/05/20 05:53:17;;;;;;;5.85;4.45;;;16.90;63.90;;;;;;4965543;28;20024;-74
2022/05/20 05:55:46;;;;;;;5.60;4.70;;;16.90;64.10;;;;;;4971155;28;20027;-74
2022/05/20 05:58:16;;;;;;;6.00;5.15;;;16.90;63.90;;;;;;4956435;28;20019;-74
2022/05/20 06:00:42;;;;;;;6.45;4.90;;;17.00;64.00;;;;;;4950434;28;20031;-74
2022/05/20 06:03:08;;;;;;;6.57;4.90;;;16.90;64.00;;;;;;4973411;28;20142;-74
2022/05/20 06:05:35;;;;;;;6.65;5.30;;;17.00;64.10;;;;;;4974322;28;20050;-77
2022/05/20 06:08:01;;;;;;;5.60;4.53;;;17.00;64.10;;;;;;4956962;28;20098;-75
2022/05/20 06:10:28;;;;;;;5.50;4.70;;;17.00;64.10;;;;;;4953310;28;20055;-74
2022/05/20 06:12:55;;;;;;;5.53;4.70;;;17.00;64.10;;;;;;4974278;28;20030;-75
2022/05/20 06:15:22;;;;;;;6.03;5.03;;;17.00;64.10;;;;;;4971840;28;20061;-75
2022/05/20 06:17:50;;;;;;;5.88;4.88;;;17.00;64.10;;;;;;4973161;28;20019;-75
2022/05/20 06:20:16;;;;;;;5.63;4.47;;;17.00;64.10;;;;;;4972591;28;20049;-74
2022/05/20 06:22:42;;;;;;;5.97;4.53;;;17.00;64.10;;;;;;4971787;28;20081;-74
2022/05/20 06:25:10;;;;;;;6.15;4.82;;;17.00;64.10;;;;;;4971924;28;20027;-74
2022/05/20 06:27:36;;;;;;;5.50;4.53;;;17.00;64.20;;;;;;4971568;28;20509;-77
2022/05/20 06:30:05;;;;;;;5.30;4.63;;;17.10;64.20;;;;;;4971924;28;20110;-75
2022/05/20 06:32:30;;;;;;;5.95;4.75;;;17.10;64.30;;;;;;4971332;28;20027;-76
2022/05/20 06:40:25;;;;;;;5.65;4.75;;;17.10;64.20;;;;;;4970391;28;20325;-74
2022/05/20 06:42:50;;;;;;;5.32;4.55;;;17.10;64.20;;;;;;4972534;28;20487;-74
2022/05/20 06:45:17;;;;;;;6.63;4.88;;;17.10;64.30;;;;;;4944667;28;21539;-74
2022/05/20 06:47:43;;;;;;;5.75;4.65;;;17.10;64.30;;;;;;4972995;28;20039;-75
2022/05/20 06:50:11;;;;;;;6.03;5.03;;;17.10;64.30;;;;;;4973381;28;20367;-75
2022/05/20 06:52:37;;;;;;;5.57;4.60;;;17.10;64.40;;;;;;4955567;28;20035;-77
2022/05/20 06:55:03;;;;;;;5.53;4.43;;;17.20;64.40;;;;;;4954580;28;20027;-74
2022/05/20 06:57:29;;;;;;;6.45;4.78;;;17.20;64.40;;;;;;4959190;28;21261;-75
2022/05/20 06:59:54;;;;;;;6.22;4.88;;;17.20;64.40;;;;;;4970730;28;20094;-75
2022/05/20 07:02:21;;;;;;;6.13;5.03;;;17.20;64.40;;;;;;4971295;28;20023;-75
2022/05/20 07:04:47;;;;;;;5.72;4.63;;;17.20;64.40;;;;;;4964178;28;20065;-74
2022/05/20 07:07:12;;;;;;;5.85;4.75;;;17.30;64.50;;;;;;4959744;28;20460;-74
2022/05/20 07:09:38;;;;;;;6.25;4.70;;;17.20;64.40;;;;;;4953735;28;20027;-75
2022/05/20 07:12:04;;;;;;;5.32;4.38;;;17.30;64.50;;;;;;4970803;28;20137;-74
2022/05/20 07:14:30;;;;;;;6.13;4.25;;;17.30;64.50;;;;;;4971130;28;20030;-75
2022/05/20 07:16:56;;;;;;;6.95;5.00;;;17.30;64.40;;;;;;4955478;28;20379;-74
2022/05/20 07:19:22;;;;;;;6.05;4.75;;;17.30;64.50;;;;;;4971259;28;20041;-77
2022/05/20 07:21:48;;;;;;;5.07;4.30;;;17.40;64.50;;;;;;4957316;28;20029;-74
2022/05/20 07:24:14;;;;;;;5.78;4.43;;;17.40;64.50;;;;;;4971911;28;20027;-74
2022/05/20 07:26:40;;;;;;;6.05;4.70;;;17.40;64.50;;;;;;4970627;28;20031;-74
2022/05/20 07:29:08;;;;;;;5.90;5.00;;;17.40;64.40;;;;;;4970715;28;20031;-75
2022/05/20 07:31:35;;;;;;;5.57;4.45;;;17.50;64.50;;;;;;4955031;28;20331;-74
2022/05/20 07:34:01;;;;;;;6.32;4.53;;;17.50;64.50;;;;;;4954545;28;20027;-75
2022/05/20 07:36:27;;;;;;;6.15;4.45;;;17.50;64.40;;;;;;4954865;28;20031;-74
2022/05/20 07:38:54;;;;;;;5.78;4.47;;;17.50;64.30;;;;;;4970760;28;20029;-74
2022/05/20 07:41:22;;;;;;;6.65;4.90;;;17.60;64.30;;;;;;4970179;28;20034;-75
2022/05/20 07:43:48;;;;;;;6.25;4.47;;;17.60;64.30;;;;;;4971971;28;20048;-75
2022/05/20 07:46:14;;;;;;;5.88;4.68;;;17.60;64.20;;;;;;4938296;28;20035;-73
2022/05/20 07:48:39;;;;;;;5.20;4.35;;;17.70;64.20;;;;;;4972352;28;20026;-75
2022/05/20 07:51:12;;;;;;;5.50;4.30;;;17.70;64.10;;;;;;4955143;28;20490;-74
2022/05/20 07:53:42;;;;;;;6.88;4.57;;;17.80;64.20;;;;;;4976921;28;20467;-75
2022/05/20 07:56:40;;;;;;;6.25;5.00;;;17.80;64.10;;;;;;4950839;28;20475;-75
2022/05/20 07:59:14;;;;;;;5.00;4.10;;;17.90;64.10;;;;;;4963703;28;20049;-75
2022/05/20 08:01:44;;;;;;;5.72;4.63;;;18.00;64.00;;;;;;4963697;28;20102;-74
2022/05/20 08:07:04;;;;;;;5.80;4.25;;;18.10;63.90;;;;;;4969870;28;20038;-74
2022/05/20 08:09:30;;;;;;;7.20;5.13;;;18.20;63.70;;;;;;4969785;28;20035;-74
2022/05/20 08:11:58;;;;;;;5.20;4.35;;;18.20;63.70;;;;;;4953877;28;20141;-74
2022/05/20 08:14:26;;;;;;;5.30;4.18;;;18.30;63.70;;;;;;4970751;28;20035;-74
2022/05/20 08:16:52;;;;;;;6.65;5.20;;;18.40;63.60;;;;;;4969930;28;20014;-74
2022/05/20 08:19:17;;;;;;;5.90;4.68;;;18.40;63.50;;;;;;4954091;28;20034;-74
2022/05/20 08:21:43;;;;;;;5.47;4.35;;;18.50;63.50;;;;;;4953651;28;20113;-74
2022/05/20 08:24:09;;;;;;;6.28;4.88;;;18.50;63.40;;;;;;4969990;28;20062;-74
2022/05/20 08:26:35;;;;;;;6.10;4.28;;;18.60;63.30;;;;;;4970079;28;20113;-74
2022/05/20 08:29:01;;;;;;;6.70;4.95;;;18.70;63.30;;;;;;4951997;28;20155;-76
2022/05/20 08:31:27;;;;;;;5.90;5.00;;;18.80;63.20;;;;;;4969914;28;20034;-75
2022/05/20 08:33:53;;;;;;;6.63;5.10;;;18.80;63.20;;;;;;4968946;28;20448;-75
2022/05/20 08:36:19;;;;;;;5.53;4.60;;;18.90;63.10;;;;;;4956856;28;20488;-74
2022/05/20 08:38:47;;;;;;;6.85;4.85;;;19.00;63.10;;;;;;4970237;28;20026;-74
2022/05/20 08:41:46;;;;;;;5.97;4.75;;;19.10;63.10;;;;;;4985174;28;20110;-74
2022/05/20 08:44:16;;;;;;;4.85;3.97;;;19.10;63.00;;;;;;4960566;28;20049;-74
2022/05/20 08:46:42;;;;;;;5.80;4.32;;;19.20;62.90;;;;;;4970615;28;20033;-75
2022/05/20 08:49:15;;;;;;;5.57;4.10;;;19.30;62.80;;;;;;4969421;28;20030;-75
2022/05/20 08:51:47;;;;;;;6.47;4.32;;;19.30;62.80;;;;;;4971047;28;20038;-77
2022/05/20 08:54:13;;;;;;;5.78;4.25;;;19.40;62.70;;;;;;4970711;28;20174;-75
2022/05/20 08:56:38;;;;;;;6.35;4.60;;;19.50;62.60;;;;;;4953149;28;20121;-75
2022/05/20 08:59:08;;;;;;;5.18;3.60;;;19.50;62.50;;;;;;4953449;28;20496;-75
2022/05/20 09:01:38;;;;;;;5.68;4.45;;;19.60;62.50;;;;;;4969524;28;20338;-75
2022/05/20 09:04:13;;;;;;;6.72;4.50;;;19.70;62.50;;;;;;4970282;28;20035;-75
2022/05/20 09:06:56;;;;;;;5.00;3.83;;;19.80;62.40;;;;;;4970127;28;20022;-74
2022/05/20 09:09:25;;;;;;;5.53;3.97;;;19.80;62.20;;;;;;4966380;28;20101;-74
2022/05/20 09:11:57;;;;;;;5.40;4.10;;;19.90;62.30;;;;;;4969017;28;20606;-75
2022/05/20 09:17:14;;;;;;;5.10;3.88;;;20.10;62.10;;;;;;4955606;28;20038;-74
2022/05/20 09:19:56;;;;;;;5.50;3.83;;;20.20;62.10;;;;;;4969396;28;20097;-75
2022/05/20 09:22:29;;;;;;;5.38;3.78;;;20.20;62.00;;;;;;4948467;28;20035;-75
2022/05/20 09:24:55;;;;;;;5.10;3.70;;;20.30;61.90;;;;;;4969888;28;20031;-74
2022/05/20 09:27:33;;;;;;;5.00;4.20;;;20.40;61.80;;;;;;4969585;28;20371;-73
2022/05/20 09:30:07;;;;;;;5.30;4.07;;;20.50;61.80;;;;;;4970085;28;20031;-75
2022/05/20 09:32:38;;;;;;;5.32;3.75;;;20.50;61.60;;;;;;4969454;28;20043;-74
2022/05/20 09:35:06;;;;;;;5.13;3.78;;;20.60;61.60;;;;;;4952691;28;20031;-73
2022/05/20 09:37:34;;;;;;;5.00;3.80;;;20.70;61.60;;;;;;4969708;28;20030;-73
2022/05/20 09:40:25;;;;;;;4.80;3.50;;;20.70;61.50;;;;;;4970057;28;20058;-74
2022/05/20 09:43:04;;;;;;;6.05;4.10;;;20.80;61.50;;;;;;4969710;28;20023;-74
2022/05/20 09:45:46;;;;;;;5.88;3.75;;;20.90;61.40;;;;;;4973478;28;20475;-74
2022/05/20 09:48:19;;;;;;;5.03;3.90;;;20.90;61.20;;;;;;4971128;28;20423;-74
2022/05/20 09:51:17;;;;;;;4.93;3.17;;;21.00;61.10;;;;;;4955878;28;20030;-74
2022/05/20 09:53:51;;;;;;;5.10;3.60;;;21.00;61.10;;;;;;4966904;28;20383;-74
2022/05/20 09:56:31;;;;;;;4.10;3.17;;;21.10;61.00;;;;;;4972781;28;20125;-73
2022/05/20 09:59:22;;;;;;;5.20;3.80;;;21.20;61.00;;;;;;4973457;28;20058;-74
2022/05/20 10:02:22;;;;;;;5.03;3.50;;;21.20;60.90;;;;;;4969694;28;20027;-74
2022/05/20 10:05:02;;;;;;;5.22;3.50;;;21.30;61.00;;;;;;4944639;28;20042;-74
2022/05/20 10:07:37;;;;;;;4.65;3.53;;;21.30;60.80;;;;;;4972635;28;20066;-74
2022/05/20 10:10:10;;;;;;;4.65;3.80;;;21.40;60.90;;;;;;4972358;28;20023;-74
2022/05/20 10:12:39;;;;;;;4.90;3.53;;;21.40;60.70;;;;;;4963142;28;20031;-75
2022/05/20 10:15:40;;;;;;;5.07;3.78;;;21.50;60.70;;;;;;4973951;28;20038;-74
2022/05/20 10:18:34;;;;;;;4.70;3.17;;;21.50;60.60;;;;;;4957817;28;20035;-74
2022/05/20 10:21:30;;;;;;;4.80;3.45;;;21.60;60.60;;;;;;4969525;28;20117;-75
2022/05/20 10:24:33;;;;;;;4.97;3.25;;;21.70;60.50;;;;;;4961800;28;20039;-74
2022/05/20 10:27:04;;;;;;;3.80;2.97;;;21.70;60.40;;;;;;4972382;28;20018;-75
2022/05/20 10:33:02;;;;;;;4.93;3.70;;;21.90;60.40;;;;;;4963246;28;20031;-73
2022/05/20 10:36:06;;;;;;;4.43;3.20;;;21.90;60.20;;;;;;4972079;28;20041;-74
2022/05/20 10:38:37;;;;;;;4.40;3.30;;;22.00;60.20;;;;;;4963673;28;20521;-73
2022/05/20 10:41:21;;;;;;;4.03;3.03;;;22.00;60.00;;;;;;4971660;28;20039;-74
2022/05/20 10:50:18;;;;;;;3.53;2.75;;;22.20;59.90;;;;;;4968126;28;20054;-75
2022/05/20 10:53:17;;;;;;;4.25;2.90;;;22.30;59.80;;;;;;4965787;28;20026;-74
2022/05/20 10:56:12;;;;;;;4.60;3.03;;;22.30;59.70;;;;;;4982292;28;20049;-75
2022/05/20 10:59:13;;;;;;;4.55;3.40;;;22.40;59.80;;;;;;4971210;28;20412;-75
2022/05/20 11:01:58;;;;;;;3.70;2.92;;;22.50;59.80;;;;;;4931497;29;20035;-75
2022/05/20 11:04:38;;;;;;;4.30;3.00;;;22.60;59.60;;;;;;4970211;28;20138;-74
2022/05/20 11:07:35;;;;;;;3.95;2.90;;;22.60;59.50;;;;;;4959783;28;20088;-75
2022/05/20 11:10:32;;;;;;;3.63;2.90;;;22.70;59.60;;;;;;4955124;28;20551;-75
2022/05/20 11:13:13;;;;;;;3.55;2.70;;;22.80;59.50;;;;;;4944435;28;20372;-75
2022/05/20 11:15:39;;;;;;;3.92;2.78;;;22.90;59.50;;;;;;4970988;28;20026;-75
2022/05/20 11:18:21;;;;;;;4.57;3.00;;;22.90;59.30;;;;;;4957396;28;20022;-74
2022/05/20 11:21:05;;;;;;;3.67;2.80;;;22.90;59.20;;;;;;4972046;28;20027;-74
2022/05/20 11:23:43;;;;;;;4.43;3.08;;;23.00;59.30;;;;;;4974782;28;20364;-75
2022/05/20 11:26:24;;;;;;;4.40;3.13;;;23.10;59.20;;;;;;4970055;28;20030;-75
2022/05/20 11:29:17;;;;;;;2.92;2.55;;;23.10;59.10;;;;;;4955176;28;20030;-73
2022/05/20 11:31:59;;;;;;;3.75;2.90;;;23.20;59.00;;;;;;4961769;28;20037;-75
2022/05/20 11:34:55;;;;;;;3.90;2.63;;;23.30;59.00;;;;;;4970853;28;20036;-75
2022/05/20 11:37:59;;;;;;;4.25;2.70;;;23.30;59.00;;;;;;4967008;28;20086;-74
2022/05/20 11:40:50;;;;;;;3.70;2.70;;;23.30;58.90;;;;;;4968082;28;20039;-75
2022/05/20 11:43:25;;;;;;;4.40;2.70;;;23.40;58.90;;;;;;4970842;28;20042;-74
2022/05/20 11:46:09;;;;;;;4.32;2.60;;;23.40;58.80;;;;;;4974035;28;20060;-75
2022/05/20 11:48:59;;;;;;;4.80;2.83;;;23.50;58.90;;;;;;4969425;28;20023;-74
2022/05/20 11:51:37;;;;;;;3.55;2.55;;;23.50;58.90;;;;;;4971522;28;20034;-75
2022/05/20 11:54:08;;;;;;;3.80;2.72;;;23.60;58.80;;;;;;4970255;28;20030;-74
2022/05/20 11:56:50;;;;;;;4.78;3.00;;;23.60;58.70;;;;;;4970586;28;20023;-74
2022/05/20 11:59:27;;;;;;;4.13;3.33;;;23.60;58.80;;;;;;4983050;28;20035;-77
2022/05/20 12:01:57;;;;;;;3.85;2.78;;;23.70;58.70;;;;;;4970014;28;20117;-74
2022/05/20 12:04:27;;;;;;;5.13;2.95;;;23.70;58.70;;;;;;4970079;28;20031;-75
2022/05/20 12:07:01;;;;;;;4.72;3.60;;;23.70;58.60;;;;;;4971606;28;20719;-75
2022/05/20 12:09:40;;;;;;;4.38;3.40;;;23.80;58.70;;;;;;4969434;28;20077;-74
2022/05/20 12:12:09;;;;;;;4.82;3.50;;;23.80;58.60;;;;;;4964813;28;20483;-74
2022/05/20 12:14:58;;;;;;;5.30;3.97;;;23.80;58.50;;;;;;4970617;28;20031;-75
2022/05/20 12:17:39;;;;;;;4.50;3.28;;;23.90;58.70;;;;;;4954217;28;20347;-75
2022/05/20 12:25:53;;;;;;;5.53;3.92;;;23.90;58.80;;;;;;4971439;28;20030;-76
2022/05/20 12:28:22;;;;;;;5.63;3.88;;;23.90;58.70;;;;;;4969389;28;20051;-75
2022/05/20 12:31:37;;;;;;;5.90;4.07;;;24.00;58.70;;;;;;4969861;28;20081;-74
2022/05/20 12:34:10;;;;;;;5.43;3.83;;;24.00;58.90;;;;;;4909981;29;20039;-74
2022/05/20 12:36:41;;;;;;;5.10;3.92;;;24.00;58.70;;;;;;4959807;28;20113;-76
2022/05/20 12:39:07;;;;;;;5.78;4.35;;;24.00;58.80;;;;;;4968714;28;20113;-75
2022/05/20 12:41:57;;;;;;;5.47;4.28;;;24.00;58.90;;;;;;4969580;28;20121;-75
2022/05/20 12:44:23;;;;;;;5.32;4.28;;;24.00;58.90;;;;;;4969338;28;20518;-75
2022/05/20 12:47:00;;;;;;;6.90;5.03;;;24.00;58.90;;;;;;4970955;28;20023;-75
2022/05/20 12:49:46;;;;;;;5.57;4.25;;;24.00;59.00;;;;;;4968505;28;20471;-75
2022/05/20 12:52:44;;;;;;;6.18;4.55;;;24.00;59.10;;;;;;4939481;28;20129;-75
2022/05/20 12:55:27;;;;;;;5.65;4.70;;;24.00;59.10;;;;;;4968141;28;20062;-74
2022/05/20 12:57:55;;;;;;;5.40;4.43;;;24.00;59.20;;;;;;4970178;28;20031;-75
2022/05/20 13:00:29;;;;;;;6.88;4.55;;;24.00;59.30;;;;;;4971974;28;20019;-77
2022/05/20 13:03:02;;;;;;;5.63;4.70;;;24.00;59.40;;;;;;4969486;28;20043;-75
2022/05/20 13:05:33;;;;;;;6.45;5.00;;;23.90;59.40;;;;;;4970551;28;20026;-75
2022/05/20 13:08:03;;;;;;;6.45;4.88;;;23.90;59.50;;;;;;4970594;28;20039;-75
2022/05/20 13:10:36;;;;;;;6.95;5.28;;;23.90;59.50;;;;;;4968646;28;20109;-75
2022/05/20 13:13:10;;;;;;;6.55;5.13;;;23.90;59.60;;;;;;4970157;28;20027;-75
2022/05/20 13:15:48;;;;;;;6.55;5.05;;;23.90;59.70;;;;;;4970432;28;20026;-76
2022/05/20 13:18:22;;;;;;;7.10;5.32;;;23.90;59.80;;;;;;4969270;28;20031;-74
2022/05/20 13:21:22;;;;;;;7.25;5.13;;;23.90;59.90;;;;;;4968780;28;20054;-75
2022/05/20 13:23:51;;;;;;;6.40;4.72;;;23.80;59.90;;;;;;4930794;28;20113;-75
2022/05/20 13:26:28;;;;;;;7.28;5.55;;;23.80;59.90;;;;;;4966771;28;20371;-74
2022/05/20 13:29:14;;;;;;;7.72;5.35;;;23.80;60.10;;;;;;4972255;28;20035;-74
2022/05/20 13:31:40;;;;;;;7.60;5.35;;;23.80;60.20;;;;;;4972962;28;20026;-75
2022/05/20 13:34:09;;;;;;;8.13;5.90;;;23.80;60.20;;;;;;4956486;28;20473;-77
2022/05/20 13:36:50;;;;;;;7.82;5.65;;;23.70;60.30;;;;;;4974347;28;20085;-75
2022/05/20 13:39:18;;;;;;;7.57;6.28;;;23.70;60.40;;;;;;4973635;28;20906;-76
2022/05/20 13:41:45;;;;;;;8.45;6.00;;;23.70;60.40;;;;;;4974115;28;20113;-76
2022/05/20 13:44:11;;;;;;;8.13;6.18;;;23.70;60.50;;;;;;4972324;28;20035;-75
2022/05/20 13:49:30;;;;;;;7.75;6.15;;;23.60;60.60;;;;;;4973903;28;20057;-77
2022/05/20 13:52:03;;;;;;;8.50;6.32;;;23.70;60.60;;;;;;4974000;28;20042;-75
2022/05/20 13:54:37;;;;;;;7.50;6.32;;;23.60;60.70;;;;;;4973183;28;20038;-75
2022/05/20 13:57:04;;;;;;;7.13;6.05;;;23.60;60.70;;;;;;4974148;28;20058;-75
2022/05/20 13:59:30;;;;;;;7.07;5.97;;;23.60;60.70;;;;;;4956196;28;20081;-75
2022/05/20 14:02:08;;;;;;;8.23;6.72;;;23.60;60.80;;;;;;4974061;28;20023;-76